PWSweather.com
Personal Weather Stations
Station Observations
KJ4AJP
Beautiful Downtown Gardner, Martin, TN 38237

Beautiful Downtown GardnerMartin, TN 38237

Lat: 36.358, Lon: -88.8994

Elevation: 384.3

Station Type: TP1080WC

http://weather.mambm.com/

High Low Average
Temperature 30.7°F-0.7°C 15.3°F-9.3°C 21.3°F-5.9°C
Dew Point 14.3°F-9.8°C 7.5°F-13.6°C 11.2°F-11.6°C
Winds 6.0 mph 9.7 kmh Calm Calm 2.0 mph NE3.2 kmh NE
Wind Gusts 12.1 mph19.5 kmh 1.6 mph2.6 kmh 6.0 mph9.7 kmh
Humidity 84% 41% 66%
Pressure 30.61 in1036.6 mb 30.41 in1029.8 mb -
Precipitation 0.00 in0.0 mm - -
Hour Temp Dew Point Humidity Winds Wind Gusts Pressure Precip Precip Rate Daily Precip Total
12:00 AM 19.6°F-6.9°C 12.7°F-10.7°C 74% Calm Calm 2.2 mph3.5 kmh 30.46 in1031.5 mb 0.00 in0.0 mm 0.00 in0.0 mm 0.00 in0.0 mm
12:15 AM 19.2°F-7.1°C 12.6°F-10.8°C 75% 0.7 mph NNE1.1 kmh NNE 4.5 mph7.2 kmh 30.45 in1031.2 mb 0.00 in0.0 mm 0.00 in0.0 mm 0.00 in0.0 mm
12:30 AM 19.4°F-7.0°C 12.8°F-10.7°C 75% Calm Calm 3.8 mph6.1 kmh 30.46 in1031.5 mb 0.00 in0.0 mm 0.00 in0.0 mm 0.00 in0.0 mm
12:45 AM 19.2°F-7.1°C 12.6°F-10.8°C 75% 0.7 mph NNE1.1 kmh NNE 4.5 mph7.2 kmh 30.47 in1031.8 mb 0.00 in0.0 mm 0.00 in0.0 mm 0.00 in0.0 mm
01:00 AM 19.0°F-7.2°C 12.8°F-10.7°C 76% 1.6 mph NNE2.6 kmh NNE 4.5 mph7.2 kmh 30.47 in1031.8 mb 0.00 in0.0 mm 0.00 in0.0 mm 0.00 in0.0 mm
01:15 AM 19.0°F-7.2°C 12.8°F-10.7°C 76% 1.6 mph NNE2.6 kmh NNE 6.0 mph9.7 kmh 30.48 in1032.2 mb 0.00 in0.0 mm 0.00 in0.0 mm 0.00 in0.0 mm
01:30 AM 18.9°F-7.3°C 12.9°F-10.6°C 77% 1.6 mph N2.6 kmh N 3.8 mph6.1 kmh 30.47 in1031.8 mb 0.00 in0.0 mm 0.00 in0.0 mm 0.00 in0.0 mm
01:45 AM 18.7°F-7.4°C 13.0°F-10.6°C 78% 2.2 mph NNE3.5 kmh NNE 5.4 mph8.7 kmh 30.47 in1031.8 mb 0.00 in0.0 mm 0.00 in0.0 mm 0.00 in0.0 mm
02:00 AM 18.3°F-7.6°C 13.0°F-10.6°C 79% 0.7 mph N1.1 kmh N 3.8 mph6.1 kmh 30.47 in1031.8 mb 0.00 in0.0 mm 0.00 in0.0 mm 0.00 in0.0 mm
02:15 AM 18.0°F-7.8°C 12.6°F-10.8°C 79% 2.2 mph NNE3.5 kmh NNE 4.5 mph7.2 kmh 30.48 in1032.2 mb 0.00 in0.0 mm 0.00 in0.0 mm 0.00 in0.0 mm
02:30 AM 17.6°F-8.0°C 12.5°F-10.8°C 80% 0.7 mph NNE1.1 kmh NNE 5.4 mph8.7 kmh 30.48 in1032.2 mb 0.00 in0.0 mm 0.00 in0.0 mm 0.00 in0.0 mm
02:45 AM 17.4°F-8.1°C 12.6°F-10.8°C 81% 0.7 mph N1.1 kmh N 2.2 mph3.5 kmh 30.48 in1032.2 mb 0.00 in0.0 mm 0.00 in0.0 mm 0.00 in0.0 mm
03:00 AM 17.1°F-8.3°C 12.3°F-10.9°C 81% Calm Calm 3.1 mph5.0 kmh 30.49 in1032.5 mb 0.00 in0.0 mm 0.00 in0.0 mm 0.00 in0.0 mm
03:15 AM 17.1°F-8.3°C 12.6°F-10.8°C 82% 1.6 mph NNE2.6 kmh NNE 3.8 mph6.1 kmh 30.49 in1032.5 mb 0.00 in0.0 mm 0.00 in0.0 mm 0.00 in0.0 mm
03:30 AM 17.2°F-8.2°C 13.0°F-10.6°C 83% 0.7 mph N1.1 kmh N 4.5 mph7.2 kmh 30.49 in1032.5 mb 0.00 in0.0 mm 0.00 in0.0 mm 0.00 in0.0 mm
03:45 AM 17.4°F-8.1°C 13.5°F-10.3°C 84% 2.2 mph NE3.5 kmh NE 6.0 mph9.7 kmh 30.49 in1032.5 mb 0.00 in0.0 mm 0.00 in0.0 mm 0.00 in0.0 mm
04:00 AM 17.8°F-7.9°C 13.8°F-10.1°C 84% 1.6 mph NE2.6 kmh NE 8.3 mph13.4 kmh 30.49 in1032.5 mb 0.00 in0.0 mm 0.00 in0.0 mm 0.00 in0.0 mm
04:15 AM 18.0°F-7.8°C 14.0°F-10.0°C 84% 2.2 mph NE3.5 kmh NE 7.6 mph12.2 kmh 30.49 in1032.5 mb 0.00 in0.0 mm 0.00 in0.0 mm 0.00 in0.0 mm
04:30 AM 18.3°F-7.6°C 14.3°F-9.8°C 84% 0.7 mph NE1.1 kmh NE 8.3 mph13.4 kmh 30.50 in1032.8 mb 0.00 in0.0 mm 0.00 in0.0 mm 0.00 in0.0 mm
04:45 AM 18.5°F-7.5°C 14.2°F-9.9°C 83% 0.7 mph NNE1.1 kmh NNE 4.5 mph7.2 kmh 30.51 in1033.2 mb 0.00 in0.0 mm 0.00 in0.0 mm 0.00 in0.0 mm
05:00 AM 18.5°F-7.5°C 14.2°F-9.9°C 83% 4.5 mph NNE7.2 kmh NNE 8.3 mph13.4 kmh 30.51 in1033.2 mb 0.00 in0.0 mm 0.00 in0.0 mm 0.00 in0.0 mm
05:15 AM 18.5°F-7.5°C 14.2°F-9.9°C 83% 2.2 mph NNW3.5 kmh NNW 8.3 mph13.4 kmh 30.51 in1033.2 mb 0.00 in0.0 mm 0.00 in0.0 mm 0.00 in0.0 mm
05:30 AM 18.5°F-7.5°C 14.0°F-10.0°C 82% 0.7 mph N1.1 kmh N 6.0 mph9.7 kmh 30.51 in1033.2 mb 0.00 in0.0 mm 0.00 in0.0 mm 0.00 in0.0 mm
05:45 AM 18.3°F-7.6°C 13.8°F-10.1°C 82% 3.1 mph NE5.0 kmh NE 7.6 mph12.2 kmh 30.51 in1033.2 mb 0.00 in0.0 mm 0.00 in0.0 mm 0.00 in0.0 mm
06:00 AM 18.1°F-7.7°C 13.6°F-10.2°C 82% 3.1 mph NNE5.0 kmh NNE 6.0 mph9.7 kmh 30.53 in1033.9 mb 0.00 in0.0 mm 0.00 in0.0 mm 0.00 in0.0 mm
06:15 AM 18.1°F-7.7°C 13.6°F-10.2°C 82% 2.2 mph NNE3.5 kmh NNE 9.2 mph14.8 kmh 30.53 in1033.9 mb 0.00 in0.0 mm 0.00 in0.0 mm 0.00 in0.0 mm
06:30 AM 17.8°F-7.9°C 13.3°F-10.4°C 82% 2.2 mph NE3.5 kmh NE 7.6 mph12.2 kmh 30.54 in1034.2 mb 0.00 in0.0 mm 0.00 in0.0 mm 0.00 in0.0 mm
06:45 AM 17.6°F-8.0°C 13.1°F-10.5°C 82% 3.1 mph NNE5.0 kmh NNE 8.3 mph13.4 kmh 30.54 in1034.2 mb 0.00 in0.0 mm 0.00 in0.0 mm 0.00 in0.0 mm
07:00 AM 17.1°F-8.3°C 12.6°F-10.8°C 82% 1.6 mph NE2.6 kmh NE 8.3 mph13.4 kmh 30.54 in1034.2 mb 0.00 in0.0 mm 0.00 in0.0 mm 0.00 in0.0 mm
07:15 AM 16.9°F-8.4°C 12.7°F-10.7°C 83% 2.2 mph NNE3.5 kmh NNE 6.9 mph11.1 kmh 30.54 in1034.2 mb 0.00 in0.0 mm 0.00 in0.0 mm 0.00 in0.0 mm
07:30 AM 16.5°F-8.6°C 12.3°F-10.9°C 83% 2.2 mph NNE3.5 kmh NNE 7.6 mph12.2 kmh 30.55 in1034.5 mb 0.00 in0.0 mm 0.00 in0.0 mm 0.00 in0.0 mm
07:45 AM 16.3°F-8.7°C 11.9°F-11.2°C 82% 2.2 mph NE3.5 kmh NE 6.0 mph9.7 kmh 30.54 in1034.2 mb 0.00 in0.0 mm 0.00 in0.0 mm 0.00 in0.0 mm
08:00 AM 16.0°F-8.9°C 11.5°F-11.4°C 82% 2.2 mph NE3.5 kmh NE 9.2 mph14.8 kmh 30.55 in1034.5 mb 0.00 in0.0 mm 0.00 in0.0 mm 0.00 in0.0 mm
08:15 AM 15.6°F-9.1°C 11.2°F-11.6°C 82% 1.6 mph NE2.6 kmh NE 6.9 mph11.1 kmh 30.56 in1034.9 mb 0.00 in0.0 mm 0.00 in0.0 mm 0.00 in0.0 mm
08:30 AM 15.4°F-9.2°C 11.0°F-11.7°C 82% 2.2 mph NE3.5 kmh NE 7.6 mph12.2 kmh 30.56 in1034.9 mb 0.00 in0.0 mm 0.00 in0.0 mm 0.00 in0.0 mm
08:44 AM 15.3°F-9.3°C 10.8°F-11.8°C 82% 0.7 mph NE1.1 kmh NE 3.1 mph5.0 kmh 30.56 in1034.9 mb 0.00 in0.0 mm 0.00 in0.0 mm 0.00 in0.0 mm
08:45 AM 15.3°F-9.3°C 10.8°F-11.8°C 82% 2.2 mph NNE3.5 kmh NNE 6.9 mph11.1 kmh 30.57 in1035.2 mb 0.00 in0.0 mm 0.00 in0.0 mm 0.00 in0.0 mm
08:54 AM 15.4°F-9.2°C 10.9°F-11.7°C 82% 3.8 mph NE6.1 kmh NE 6.9 mph11.1 kmh 30.57 in1035.2 mb 0.00 in0.0 mm 0.00 in0.0 mm 0.00 in0.0 mm
09:00 AM 15.4°F-9.2°C 11.0°F-11.7°C 82% 1.6 mph N2.6 kmh N 6.9 mph11.1 kmh 30.57 in1035.2 mb 0.00 in0.0 mm 0.00 in0.0 mm 0.00 in0.0 mm
09:15 AM 15.6°F-9.1°C 11.2°F-11.6°C 82% 3.1 mph NE5.0 kmh NE 8.3 mph13.4 kmh 30.58 in1035.6 mb 0.00 in0.0 mm 0.00 in0.0 mm 0.00 in0.0 mm
09:30 AM 15.8°F-9.0°C 11.1°F-11.6°C 81% 2.2 mph NE3.5 kmh NE 11.4 mph18.3 kmh 30.59 in1035.9 mb 0.00 in0.0 mm 0.00 in0.0 mm 0.00 in0.0 mm
09:45 AM 16.3°F-8.7°C 11.9°F-11.2°C 82% 3.8 mph NE6.1 kmh NE 9.2 mph14.8 kmh 30.59 in1035.9 mb 0.00 in0.0 mm 0.00 in0.0 mm 0.00 in0.0 mm
10:00 AM 17.1°F-8.3°C 12.0°F-11.1°C 80% 1.6 mph NE2.6 kmh NE 6.9 mph11.1 kmh 30.59 in1035.9 mb 0.00 in0.0 mm 0.00 in0.0 mm 0.00 in0.0 mm
10:15 AM 18.0°F-7.8°C 12.6°F-10.8°C 79% 2.2 mph NE3.5 kmh NE 7.6 mph12.2 kmh 30.60 in1036.2 mb 0.00 in0.0 mm 0.00 in0.0 mm 0.00 in0.0 mm
10:30 AM 18.7°F-7.4°C 13.0°F-10.6°C 78% 2.2 mph ENE3.5 kmh ENE 7.6 mph12.2 kmh 30.60 in1036.2 mb 0.00 in0.0 mm 0.00 in0.0 mm 0.00 in0.0 mm
10:45 AM 19.4°F-7.0°C 13.4°F-10.3°C 77% 2.2 mph NE3.5 kmh NE 6.0 mph9.7 kmh 30.61 in1036.6 mb 0.00 in0.0 mm 0.00 in0.0 mm 0.00 in0.0 mm
11:00 AM 20.8°F-6.2°C 14.2°F-9.9°C 75% 1.6 mph NE2.6 kmh NE 6.9 mph11.1 kmh 30.61 in1036.6 mb 0.00 in0.0 mm 0.00 in0.0 mm 0.00 in0.0 mm
11:15 AM 21.2°F-6.0°C 13.6°F-10.2°C 72% 2.2 mph NE3.5 kmh NE 6.0 mph9.7 kmh 30.60 in1036.2 mb 0.00 in0.0 mm 0.00 in0.0 mm 0.00 in0.0 mm
11:30 AM 22.5°F-5.3°C 14.2°F-9.9°C 70% 3.1 mph NE5.0 kmh NE 8.3 mph13.4 kmh 30.61 in1036.6 mb 0.00 in0.0 mm 0.00 in0.0 mm 0.00 in0.0 mm
11:45 AM 22.6°F-5.2°C 13.7°F-10.2°C 68% 3.8 mph E6.1 kmh E 8.3 mph13.4 kmh 30.61 in1036.6 mb 0.00 in0.0 mm 0.00 in0.0 mm 0.00 in0.0 mm
12:00 PM 22.6°F-5.2°C 13.4°F-10.3°C 67% 2.2 mph NNE3.5 kmh NNE 9.2 mph14.8 kmh 30.61 in1036.6 mb 0.00 in0.0 mm 0.00 in0.0 mm 0.00 in0.0 mm
12:15 PM 22.8°F-5.1°C 13.2°F-10.4°C 66% 5.4 mph NE8.7 kmh NE 7.6 mph12.2 kmh 30.60 in1036.2 mb 0.00 in0.0 mm 0.00 in0.0 mm 0.00 in0.0 mm
12:30 PM 23.4°F-4.8°C 11.9°F-11.2°C 61% 3.8 mph ENE6.1 kmh ENE 9.2 mph14.8 kmh 30.58 in1035.6 mb 0.00 in0.0 mm 0.00 in0.0 mm 0.00 in0.0 mm
12:45 PM 24.1°F-4.4°C 12.6°F-10.8°C 61% 0.7 mph E1.1 kmh E 9.8 mph15.8 kmh 30.57 in1035.2 mb 0.00 in0.0 mm 0.00 in0.0 mm 0.00 in0.0 mm
01:00 PM 24.8°F-4.0°C 12.9°F-10.6°C 60% 3.1 mph E5.0 kmh E 9.8 mph15.8 kmh 30.57 in1035.2 mb 0.00 in0.0 mm 0.00 in0.0 mm 0.00 in0.0 mm
01:15 PM 25.7°F-3.5°C 13.4°F-10.3°C 59% 5.4 mph E8.7 kmh E 9.2 mph14.8 kmh 30.55 in1034.5 mb 0.00 in0.0 mm 0.00 in0.0 mm 0.00 in0.0 mm
01:30 PM 26.6°F-3.0°C 12.7°F-10.7°C 55% 4.5 mph E7.2 kmh E 9.8 mph15.8 kmh 30.55 in1034.5 mb 0.00 in0.0 mm 0.00 in0.0 mm 0.00 in0.0 mm
01:45 PM 27.5°F-2.5°C 13.1°F-10.5°C 54% 6.0 mph E9.7 kmh E 8.3 mph13.4 kmh 30.55 in1034.5 mb 0.00 in0.0 mm 0.00 in0.0 mm 0.00 in0.0 mm
02:00 PM 28.0°F-2.2°C 12.7°F-10.7°C 52% 3.1 mph ENE5.0 kmh ENE 8.3 mph13.4 kmh 30.55 in1034.5 mb 0.00 in0.0 mm 0.00 in0.0 mm 0.00 in0.0 mm
02:15 PM 28.6°F-1.9°C 12.8°F-10.7°C 51% 3.8 mph ENE6.1 kmh ENE 9.2 mph14.8 kmh 30.54 in1034.2 mb 0.00 in0.0 mm 0.00 in0.0 mm 0.00 in0.0 mm
02:30 PM 28.9°F-1.7°C 11.8°F-11.2°C 48% 3.8 mph NE6.1 kmh NE 12.1 mph19.5 kmh 30.53 in1033.9 mb 0.00 in0.0 mm 0.00 in0.0 mm 0.00 in0.0 mm
02:45 PM 29.3°F-1.5°C 11.6°F-11.3°C 47% 2.2 mph ENE3.5 kmh ENE 11.4 mph18.3 kmh 30.52 in1033.5 mb 0.00 in0.0 mm 0.00 in0.0 mm 0.00 in0.0 mm
03:00 PM 29.7°F-1.3°C 11.9°F-11.2°C 47% 3.8 mph NE6.1 kmh NE 8.3 mph13.4 kmh 30.52 in1033.5 mb 0.00 in0.0 mm 0.00 in0.0 mm 0.00 in0.0 mm
03:15 PM 30.2°F-1.0°C 11.5°F-11.4°C 45% 3.1 mph ENE5.0 kmh ENE 8.3 mph13.4 kmh 30.52 in1033.5 mb 0.00 in0.0 mm 0.00 in0.0 mm 0.00 in0.0 mm
03:30 PM 30.4°F-0.9°C 12.1°F-11.1°C 46% 3.8 mph NNE6.1 kmh NNE 9.2 mph14.8 kmh 30.53 in1033.9 mb 0.00 in0.0 mm 0.00 in0.0 mm 0.00 in0.0 mm
03:45 PM 30.6°F-0.8°C 11.8°F-11.2°C 45% 3.8 mph NE6.1 kmh NE 6.9 mph11.1 kmh 30.52 in1033.5 mb 0.00 in0.0 mm 0.00 in0.0 mm 0.00 in0.0 mm
04:00 PM 30.7°F-0.7°C 11.4°F-11.4°C 44% 3.1 mph E5.0 kmh E 11.4 mph18.3 kmh 30.51 in1033.2 mb 0.00 in0.0 mm 0.00 in0.0 mm 0.00 in0.0 mm
04:15 PM 30.7°F-0.7°C 11.4°F-11.4°C 44% 1.6 mph NE2.6 kmh NE 6.0 mph9.7 kmh 30.51 in1033.2 mb 0.00 in0.0 mm 0.00 in0.0 mm 0.00 in0.0 mm
04:30 PM 30.7°F-0.7°C 11.4°F-11.4°C 44% 2.2 mph ENE3.5 kmh ENE 6.9 mph11.1 kmh 30.51 in1033.2 mb 0.00 in0.0 mm 0.00 in0.0 mm 0.00 in0.0 mm
04:45 PM 30.6°F-0.8°C 10.8°F-11.8°C 43% 2.2 mph ENE3.5 kmh ENE 5.4 mph8.7 kmh 30.50 in1032.8 mb 0.00 in0.0 mm 0.00 in0.0 mm 0.00 in0.0 mm
05:00 PM 30.4°F-0.9°C 9.5°F-12.5°C 41% 3.8 mph E6.1 kmh E 8.3 mph13.4 kmh 30.50 in1032.8 mb 0.00 in0.0 mm 0.00 in0.0 mm 0.00 in0.0 mm
05:15 PM 29.8°F-1.2°C 9.6°F-12.4°C 42% 1.6 mph NE2.6 kmh NE 6.0 mph9.7 kmh 30.50 in1032.8 mb 0.00 in0.0 mm 0.00 in0.0 mm 0.00 in0.0 mm
05:30 PM 28.9°F-1.7°C 9.3°F-12.6°C 43% 0.7 mph E1.1 kmh E 5.4 mph8.7 kmh 30.50 in1032.8 mb 0.00 in0.0 mm 0.00 in0.0 mm 0.00 in0.0 mm
05:45 PM 28.0°F-2.2°C 9.0°F-12.8°C 44% 1.6 mph ENE2.6 kmh ENE 4.5 mph7.2 kmh 30.49 in1032.5 mb 0.00 in0.0 mm 0.00 in0.0 mm 0.00 in0.0 mm
06:00 PM 27.0°F-2.8°C 8.5°F-13.1°C 45% 0.7 mph NE1.1 kmh NE 3.8 mph6.1 kmh 30.49 in1032.5 mb 0.00 in0.0 mm 0.00 in0.0 mm 0.00 in0.0 mm
06:15 PM 25.9°F-3.4°C 8.5°F-13.1°C 47% Calm Calm 2.2 mph3.5 kmh 30.48 in1032.2 mb 0.00 in0.0 mm 0.00 in0.0 mm 0.00 in0.0 mm
06:30 PM 24.8°F-4.0°C 8.4°F-13.1°C 49% 0.7 mph NE1.1 kmh NE 3.1 mph5.0 kmh 30.49 in1032.5 mb 0.00 in0.0 mm 0.00 in0.0 mm 0.00 in0.0 mm
06:45 PM 23.7°F-4.6°C 7.9°F-13.4°C 50% Calm Calm 1.6 mph2.6 kmh 30.49 in1032.5 mb 0.00 in0.0 mm 0.00 in0.0 mm 0.00 in0.0 mm
07:00 PM 22.5°F-5.3°C 7.5°F-13.6°C 52% 0.7 mph NE1.1 kmh NE 2.2 mph3.5 kmh 30.49 in1032.5 mb 0.00 in0.0 mm 0.00 in0.0 mm 0.00 in0.0 mm
07:15 PM 21.6°F-5.8°C 7.9°F-13.4°C 55% 0.7 mph NE1.1 kmh NE 3.1 mph5.0 kmh 30.49 in1032.5 mb 0.00 in0.0 mm 0.00 in0.0 mm 0.00 in0.0 mm
07:30 PM 21.0°F-6.1°C 7.8°F-13.4°C 56% 0.7 mph ENE1.1 kmh ENE 3.1 mph5.0 kmh 30.49 in1032.5 mb 0.00 in0.0 mm 0.00 in0.0 mm 0.00 in0.0 mm
07:45 PM 20.7°F-6.3°C 7.5°F-13.6°C 56% 1.6 mph NE2.6 kmh NE 3.8 mph6.1 kmh 30.50 in1032.8 mb 0.00 in0.0 mm 0.00 in0.0 mm 0.00 in0.0 mm
08:00 PM 20.3°F-6.5°C 7.6°F-13.6°C 57% 0.7 mph NE1.1 kmh NE 3.8 mph6.1 kmh 30.49 in1032.5 mb 0.00 in0.0 mm 0.00 in0.0 mm 0.00 in0.0 mm
08:15 PM 20.1°F-6.6°C 7.8°F-13.4°C 58% 0.7 mph ENE1.1 kmh ENE 4.5 mph7.2 kmh 30.49 in1032.5 mb 0.00 in0.0 mm 0.00 in0.0 mm 0.00 in0.0 mm
08:30 PM 20.7°F-6.3°C 7.9°F-13.4°C 57% 1.6 mph ENE2.6 kmh ENE 4.5 mph7.2 kmh 30.49 in1032.5 mb 0.00 in0.0 mm 0.00 in0.0 mm 0.00 in0.0 mm
08:45 PM 20.8°F-6.2°C 8.1°F-13.3°C 57% 0.7 mph ENE1.1 kmh ENE 4.5 mph7.2 kmh 30.49 in1032.5 mb 0.00 in0.0 mm 0.00 in0.0 mm 0.00 in0.0 mm
09:00 PM 20.8°F-6.2°C 8.1°F-13.3°C 57% 1.6 mph ENE2.6 kmh ENE 5.4 mph8.7 kmh 30.48 in1032.2 mb 0.00 in0.0 mm 0.00 in0.0 mm 0.00 in0.0 mm
09:15 PM 20.5°F-6.4°C 7.7°F-13.5°C 57% 0.7 mph ENE1.1 kmh ENE 3.1 mph5.0 kmh 30.48 in1032.2 mb 0.00 in0.0 mm 0.00 in0.0 mm 0.00 in0.0 mm
09:30 PM 20.1°F-6.6°C 7.8°F-13.4°C 58% 1.6 mph E2.6 kmh E 4.5 mph7.2 kmh 30.46 in1031.5 mb 0.00 in0.0 mm 0.00 in0.0 mm 0.00 in0.0 mm
09:45 PM 20.1°F-6.6°C 7.8°F-13.4°C 58% 1.6 mph E2.6 kmh E 4.5 mph7.2 kmh 30.47 in1031.8 mb 0.00 in0.0 mm 0.00 in0.0 mm 0.00 in0.0 mm
10:00 PM 20.3°F-6.5°C 7.9°F-13.4°C 58% 1.6 mph E2.6 kmh E 5.4 mph8.7 kmh 30.46 in1031.5 mb 0.00 in0.0 mm 0.00 in0.0 mm 0.00 in0.0 mm
10:15 PM 20.7°F-6.3°C 8.3°F-13.2°C 58% 2.2 mph ENE3.5 kmh ENE 5.4 mph8.7 kmh 30.46 in1031.5 mb 0.00 in0.0 mm 0.00 in0.0 mm 0.00 in0.0 mm
10:30 PM 20.7°F-6.3°C 8.3°F-13.2°C 58% 1.6 mph E2.6 kmh E 4.5 mph7.2 kmh 30.45 in1031.2 mb 0.00 in0.0 mm 0.00 in0.0 mm 0.00 in0.0 mm
10:45 PM 20.7°F-6.3°C 8.3°F-13.2°C 58% 2.2 mph E3.5 kmh E 4.5 mph7.2 kmh 30.45 in1031.2 mb 0.00 in0.0 mm 0.00 in0.0 mm 0.00 in0.0 mm
11:00 PM 20.8°F-6.2°C 8.8°F-12.9°C 59% 1.6 mph E2.6 kmh E 6.9 mph11.1 kmh 30.45 in1031.2 mb 0.00 in0.0 mm 0.00 in0.0 mm 0.00 in0.0 mm
11:15 PM 20.8°F-6.2°C 8.8°F-12.9°C 59% 1.6 mph E2.6 kmh E 6.0 mph9.7 kmh 30.45 in1031.2 mb 0.00 in0.0 mm 0.00 in0.0 mm 0.00 in0.0 mm
11:30 PM 20.8°F-6.2°C 8.8°F-12.9°C 59% 1.6 mph E2.6 kmh E 5.4 mph8.7 kmh 30.44 in1030.8 mb 0.00 in0.0 mm 0.00 in0.0 mm 0.00 in0.0 mm
11:45 PM 20.8°F-6.2°C 9.2°F-12.7°C 60% 0.7 mph E1.1 kmh E 6.0 mph9.7 kmh 30.43 in1030.5 mb 0.00 in0.0 mm 0.00 in0.0 mm 0.00 in0.0 mm